TimeMST,TemperatureF,Dew PointF,Humidity,Sea Level PressureIn,VisibilityMPH,Wind Direction,Wind SpeedMPH,Gust SpeedMPH,PrecipitationIn,Events,Conditions,WindDirDegrees,DateUTC
12:53 AM,36.0,14.0,41,29.77,10.0,SW,6.9,-,N/A,,Clear,230,2012-11-22 07:53:00
1:53 AM,37.0,12.0,36,29.77,10.0,West,4.6,-,N/A,,Clear,260,2012-11-22 08:53:00
2:53 AM,41.0,14.0,33,29.78,10.0,WSW,8.1,-,N/A,,Clear,250,2012-11-22 09:53:00
3:53 AM,34.0,14.0,44,29.82,10.0,SW,8.1,-,N/A,,Clear,220,2012-11-22 10:53:00
4:53 AM,35.1,14.0,42,29.86,10.0,SW,9.2,-,N/A,,Clear,230,2012-11-22 11:53:00
5:53 AM,35.1,14.0,42,29.91,10.0,SSW,10.4,-,N/A,,Clear,210,2012-11-22 12:53:00
6:53 AM,30.9,12.9,47,29.94,10.0,SSW,8.1,-,N/A,,Clear,210,2012-11-22 13:53:00
7:53 AM,45.0,14.0,29,29.95,10.0,West,3.5,-,N/A,,Clear,280,2012-11-22 14:53:00
8:53 AM,52.0,12.0,20,29.99,10.0,West,9.2,-,N/A,,Clear,260,2012-11-22 15:53:00
9:53 AM,55.0,12.9,19,30.02,10.0,West,10.4,-,N/A,,Clear,280,2012-11-22 16:53:00
10:53 AM,60.1,15.1,17,30.02,10.0,Variable,3.5,-,N/A,,Clear,0,2012-11-22 17:53:00
11:53 AM,62.1,25.0,24,30.03,10.0,NNE,19.6,24.2,N/A,,Clear,20,2012-11-22 18:53:00
12:53 PM,63.0,27.0,26,30.04,10.0,NE,17.3,-,N/A,,Clear,40,2012-11-22 19:53:00
1:53 PM,61.0,28.0,29,30.07,10.0,North,16.1,-,N/A,,Clear,10,2012-11-22 20:53:00
2:53 PM,57.0,26.1,30,30.11,10.0,NNE,15.0,23.0,N/A,,Clear,30,2012-11-22 21:53:00
3:53 PM,55.0,23.0,29,30.16,10.0,NE,11.5,20.7,N/A,,Clear,40,2012-11-22 22:53:00
4:53 PM,48.9,21.0,33,30.22,10.0,NE,11.5,-,N/A,,Clear,40,2012-11-22 23:53:00
5:53 PM,42.1,17.1,37,30.29,10.0,NE,8.1,-,N/A,,Clear,40,2012-11-23 00:53:00
6:53 PM,37.9,15.1,39,30.35,10.0,NNE,3.5,-,N/A,,Clear,30,2012-11-23 01:53:00
7:53 PM,33.1,14.0,46,30.38,10.0,Calm,Calm,-,N/A,,Clear,0,2012-11-23 02:53:00
8:53 PM,30.0,12.9,49,30.41,10.0,Calm,Calm,-,N/A,,Clear,0,2012-11-23 03:53:00
9:53 PM,28.9,12.0,49,30.44,10.0,Calm,Calm,-,N/A,,Clear,0,2012-11-23 04:53:00
10:53 PM,26.1,10.9,53,30.46,10.0,SSW,3.5,-,N/A,,Clear,210,2012-11-23 05:53:00
11:53 PM,23.0,10.9,60,30.48,10.0,SSW,5.8,-,N/A,,Clear,200,2012-11-23 06:53:00